Terminal Aerodrome Forecast
Issued by NWS Lake Charles, LA

Home | Current Version | Previous Version | Text Only | Print | Product List | Glossary On
Versions: 1 2 3 4 5 6 7 8 9 10 11 12 13 14 15 16 17 18 19 20
000
FTUS44 KLCH 251744
TAFLFT
TAF
KLFT 251744Z 2518/2618 18012G18KT P6SM VCSH SCT025
     FM260300 15010KT P6SM VCTS SCT025CB PROB30 2605/2611 VRB25G35KT
      1SM +TSRA OVC025CB=

USA.gov is the U.S. government's official web portal to all federal, state and local government web resources and services.